sensor_id;sensor_type;location;lat;lon;timestamp;pressure;altitude;pressure_sealevel;temperature;humidity
66176;BME280;52977;44.816;20.538;2022-08-21T00:01:03;99133.13;;;22.65;100.00
66176;BME280;52977;44.816;20.538;2022-08-21T00:03:31;99123.53;;;22.66;100.00
66176;BME280;52977;44.816;20.538;2022-08-21T00:05:57;99134.22;;;22.71;100.00
66176;BME280;52977;44.816;20.538;2022-08-21T00:08:22;99129.81;;;22.74;100.00
66176;BME280;52977;44.816;20.538;2022-08-21T00:10:49;99131.00;;;22.73;100.00
66176;BME280;52977;44.816;20.538;2022-08-21T00:13:16;99121.81;;;22.76;100.00
66176;BME280;52977;44.816;20.538;2022-08-21T00:15:43;99115.16;;;22.69;100.00
66176;BME280;52977;44.816;20.538;2022-08-21T00:18:09;99135.69;;;22.79;100.00
66176;BME280;52977;44.816;20.538;2022-08-21T00:20:37;99111.31;;;22.60;100.00
66176;BME280;52977;44.816;20.538;2022-08-21T00:23:03;99138.16;;;22.74;100.00
66176;BME280;52977;44.816;20.538;2022-08-21T00:25:29;99134.91;;;22.79;100.00
66176;BME280;52977;44.816;20.538;2022-08-21T00:27:55;99130.13;;;22.79;100.00
66176;BME280;52977;44.816;20.538;2022-08-21T00:30:22;99132.47;;;22.81;100.00
66176;BME280;52977;44.816;20.538;2022-08-21T00:32:49;99135.22;;;22.84;100.00
66176;BME280;52977;44.816;20.538;2022-08-21T00:35:18;99134.00;;;22.85;100.00
66176;BME280;52977;44.816;20.538;2022-08-21T00:37:44;99137.19;;;22.84;100.00
66176;BME280;52977;44.816;20.538;2022-08-21T00:40:14;99133.69;;;22.80;100.00
66176;BME280;52977;44.816;20.538;2022-08-21T00:42:40;99110.06;;;22.64;100.00
66176;BME280;52977;44.816;20.538;2022-08-21T00:45:07;99134.50;;;22.80;100.00
66176;BME280;52977;44.816;20.538;2022-08-21T00:47:33;99122.50;;;22.83;100.00
66176;BME280;52977;44.816;20.538;2022-08-21T00:49:59;99120.19;;;22.78;100.00
66176;BME280;52977;44.816;20.538;2022-08-21T00:52:29;99126.56;;;22.79;100.00
66176;BME280;52977;44.816;20.538;2022-08-21T00:54:57;99116.25;;;22.76;100.00
66176;BME280;52977;44.816;20.538;2022-08-21T00:57:28;99016.56;;;22.16;100.00
66176;BME280;52977;44.816;20.538;2022-08-21T00:59:58;99107.59;;;22.70;100.00
66176;BME280;52977;44.816;20.538;2022-08-21T01:02:25;99096.97;;;22.65;100.00
66176;BME280;52977;44.816;20.538;2022-08-21T01:04:51;99125.44;;;22.73;100.00
66176;BME280;52977;44.816;20.538;2022-08-21T01:07:17;99126.75;;;22.64;100.00
66176;BME280;52977;44.816;20.538;2022-08-21T01:09:44;99110.72;;;22.45;100.00
66176;BME280;52977;44.816;20.538;2022-08-21T01:12:11;99111.59;;;22.38;100.00
66176;BME280;52977;44.816;20.538;2022-08-21T01:14:37;99110.06;;;22.33;100.00
66176;BME280;52977;44.816;20.538;2022-08-21T01:17:04;99112.00;;;22.36;100.00
66176;BME280;52977;44.816;20.538;2022-08-21T01:19:31;99119.56;;;22.36;100.00
66176;BME280;52977;44.816;20.538;2022-08-21T01:21:57;99086.59;;;22.04;100.00
66176;BME280;52977;44.816;20.538;2022-08-21T01:24:25;99099.13;;;22.19;100.00
66176;BME280;52977;44.816;20.538;2022-08-21T01:26:51;99123.63;;;22.28;100.00
66176;BME280;52977;44.816;20.538;2022-08-21T01:31:55;99109.28;;;21.98;100.00
66176;BME280;52977;44.816;20.538;2022-08-21T01:34:21;99074.03;;;21.54;100.00
66176;BME280;52977;44.816;20.538;2022-08-21T01:36:47;99113.91;;;21.74;100.00
66176;BME280;52977;44.816;20.538;2022-08-21T01:39:13;99108.78;;;21.69;100.00
66176;BME280;52977;44.816;20.538;2022-08-21T01:41:40;99094.56;;;21.63;100.00
66176;BME280;52977;44.816;20.538;2022-08-21T01:44:05;99095.31;;;21.67;100.00
66176;BME280;52977;44.816;20.538;2022-08-21T01:46:31;99094.94;;;21.65;100.00
66176;BME280;52977;44.816;20.538;2022-08-21T01:48:57;99101.22;;;21.73;100.00
66176;BME280;52977;44.816;20.538;2022-08-21T01:51:23;99093.72;;;21.70;100.00
66176;BME280;52977;44.816;20.538;2022-08-21T01:53:49;99064.50;;;21.55;100.00
66176;BME280;52977;44.816;20.538;2022-08-21T01:56:16;99107.63;;;21.66;100.00
66176;BME280;52977;44.816;20.538;2022-08-21T01:58:45;99064.78;;;21.64;100.00
66176;BME280;52977;44.816;20.538;2022-08-21T02:01:11;99080.09;;;21.79;100.00
66176;BME280;52977;44.816;20.538;2022-08-21T02:03:37;99094.41;;;21.78;100.00
66176;BME280;52977;44.816;20.538;2022-08-21T02:06:04;99092.53;;;21.67;100.00
66176;BME280;52977;44.816;20.538;2022-08-21T02:08:32;99092.56;;;21.64;100.00
66176;BME280;52977;44.816;20.538;2022-08-21T02:10:58;99058.22;;;21.43;100.00
66176;BME280;52977;44.816;20.538;2022-08-21T02:13:24;99068.91;;;21.52;100.00
66176;BME280;52977;44.816;20.538;2022-08-21T02:15:49;99083.91;;;21.58;100.00
66176;BME280;52977;44.816;20.538;2022-08-21T02:18:15;99089.03;;;21.60;100.00
66176;BME280;52977;44.816;20.538;2022-08-21T02:20:45;99080.78;;;21.53;100.00
66176;BME280;52977;44.816;20.538;2022-08-21T02:23:12;99082.41;;;21.46;100.00
66176;BME280;52977;44.816;20.538;2022-08-21T02:25:38;99078.53;;;21.37;100.00
66176;BME280;52977;44.816;20.538;2022-08-21T02:28:07;99080.50;;;21.36;100.00
66176;BME280;52977;44.816;20.538;2022-08-21T02:30:36;99083.25;;;21.40;100.00
66176;BME280;52977;44.816;20.538;2022-08-21T02:33:06;99069.41;;;21.36;100.00
66176;BME280;52977;44.816;20.538;2022-08-21T02:35:32;99067.88;;;21.31;100.00
66176;BME280;52977;44.816;20.538;2022-08-21T02:38:01;99071.75;;;21.38;100.00
66176;BME280;52977;44.816;20.538;2022-08-21T02:40:31;99047.75;;;21.20;100.00
66176;BME280;52977;44.816;20.538;2022-08-21T02:42:58;99083.94;;;21.51;100.00
66176;BME280;52977;44.816;20.538;2022-08-21T02:45:24;99083.94;;;21.51;100.00
66176;BME280;52977;44.816;20.538;2022-08-21T02:48:01;99079.28;;;21.41;100.00
66176;BME280;52977;44.816;20.538;2022-08-21T02:50:30;99078.03;;;21.45;100.00
66176;BME280;52977;44.816;20.538;2022-08-21T02:52:57;99082.00;;;21.48;100.00
66176;BME280;52977;44.816;20.538;2022-08-21T02:55:25;99079.31;;;21.37;100.00
66176;BME280;52977;44.816;20.538;2022-08-21T02:57:53;99074.53;;;21.38;100.00
66176;BME280;52977;44.816;20.538;2022-08-21T03:00:20;99078.22;;;21.27;100.00
66176;BME280;52977;44.816;20.538;2022-08-21T03:02:47;99072.34;;;21.18;100.00
66176;BME280;52977;44.816;20.538;2022-08-21T03:05:14;99079.72;;;21.39;100.00
66176;BME280;52977;44.816;20.538;2022-08-21T03:07:41;99067.94;;;21.24;100.00
66176;BME280;52977;44.816;20.538;2022-08-21T03:10:07;98989.09;;;20.76;100.00
66176;BME280;52977;44.816;20.538;2022-08-21T03:12:34;99074.19;;;21.36;100.00
66176;BME280;52977;44.816;20.538;2022-08-21T03:15:05;99079.72;;;21.39;100.00
66176;BME280;52977;44.816;20.538;2022-08-21T03:17:32;99058.34;;;21.32;100.00
66176;BME280;52977;44.816;20.538;2022-08-21T03:19:58;99060.56;;;21.48;100.00
66176;BME280;52977;44.816;20.538;2022-08-21T03:22:23;99051.53;;;21.41;100.00
66176;BME280;52977;44.816;20.538;2022-08-21T03:24:49;99070.50;;;21.46;100.00
66176;BME280;52977;44.816;20.538;2022-08-21T03:27:15;99068.88;;;21.48;100.00
66176;BME280;52977;44.816;20.538;2022-08-21T03:29:40;99067.38;;;21.40;100.00
66176;BME280;52977;44.816;20.538;2022-08-21T03:32:06;99053.16;;;21.34;100.00
66176;BME280;52977;44.816;20.538;2022-08-21T03:34:36;99070.56;;;21.42;100.00
66176;BME280;52977;44.816;20.538;2022-08-21T03:37:03;99044.59;;;21.18;100.00
66176;BME280;52977;44.816;20.538;2022-08-21T03:39:29;99060.66;;;21.38;100.00
66176;BME280;52977;44.816;20.538;2022-08-21T03:41:55;99077.78;;;21.32;100.00
66176;BME280;52977;44.816;20.538;2022-08-21T03:44:20;99053.22;;;21.27;100.00
66176;BME280;52977;44.816;20.538;2022-08-21T03:46:46;99063.03;;;21.39;100.00
66176;BME280;52977;44.816;20.538;2022-08-21T03:49:12;99049.75;;;21.20;100.00
66176;BME280;52977;44.816;20.538;2022-08-21T03:51:38;99066.75;;;21.22;100.00
66176;BME280;52977;44.816;20.538;2022-08-21T03:54:04;99069.47;;;21.29;100.00
66176;BME280;52977;44.816;20.538;2022-08-21T03:56:30;99063.34;;;21.03;100.00
66176;BME280;52977;44.816;20.538;2022-08-21T03:58:55;99049.44;;;21.07;100.00
66176;BME280;52977;44.816;20.538;2022-08-21T04:01:21;99071.41;;;21.32;100.00
66176;BME280;52977;44.816;20.538;2022-08-21T04:03:47;99070.72;;;21.24;100.00
66176;BME280;52977;44.816;20.538;2022-08-21T04:06:13;99060.38;;;21.25;100.00
66176;BME280;52977;44.816;20.538;2022-08-21T04:08:38;99052.06;;;21.25;100.00
66176;BME280;52977;44.816;20.538;2022-08-21T04:11:04;99037.91;;;21.12;100.00
66176;BME280;52977;44.816;20.538;2022-08-21T04:13:31;99076.94;;;21.36;100.00
66176;BME280;52977;44.816;20.538;2022-08-21T04:15:57;99073.78;;;21.33;100.00
66176;BME280;52977;44.816;20.538;2022-08-21T04:18:24;99056.91;;;21.17;100.00
66176;BME280;52977;44.816;20.538;2022-08-21T04:20:51;99054.19;;;21.10;100.00
66176;BME280;52977;44.816;20.538;2022-08-21T04:23:18;99079.38;;;21.30;100.00
66176;BME280;52977;44.816;20.538;2022-08-21T04:25:44;99079.72;;;21.39;100.00
66176;BME280;52977;44.816;20.538;2022-08-21T04:28:09;99060.72;;;21.30;100.00
66176;BME280;52977;44.816;20.538;2022-08-21T04:30:35;99086.81;;;21.40;100.00
66176;BME280;52977;44.816;20.538;2022-08-21T04:33:01;99080.13;;;21.34;100.00
66176;BME280;52977;44.816;20.538;2022-08-21T04:35:29;99073.75;;;21.37;100.00
66176;BME280;52977;44.816;20.538;2022-08-21T04:37:55;99061.63;;;21.20;100.00
66176;BME280;52977;44.816;20.538;2022-08-21T04:40:23;99090.81;;;21.36;100.00
66176;BME280;52977;44.816;20.538;2022-08-21T04:42:52;99082.16;;;21.30;100.00
66176;BME280;52977;44.816;20.538;2022-08-21T04:45:35;99090.06;;;21.35;100.00
66176;BME280;52977;44.816;20.538;2022-08-21T04:48:04;99094.03;;;21.30;100.00
66176;BME280;52977;44.816;20.538;2022-08-21T04:50:59;99095.63;;;21.31;100.00
66176;BME280;52977;44.816;20.538;2022-08-21T04:56:05;99095.22;;;21.33;100.00
66176;BME280;52977;44.816;20.538;2022-08-21T04:58:34;99086.53;;;21.27;100.00
66176;BME280;52977;44.816;20.538;2022-08-21T05:01:01;99079.44;;;21.23;100.00
66176;BME280;52977;44.816;20.538;2022-08-21T05:03:28;99102.81;;;21.25;100.00
66176;BME280;52977;44.816;20.538;2022-08-21T05:05:54;99105.69;;;21.11;100.00
66176;BME280;52977;44.816;20.538;2022-08-21T05:08:21;99102.00;;;21.25;100.00
66176;BME280;52977;44.816;20.538;2022-08-21T05:10:49;99104.38;;;21.26;100.00
66176;BME280;52977;44.816;20.538;2022-08-21T05:13:15;99074.75;;;21.12;100.00
66176;BME280;52977;44.816;20.538;2022-08-21T05:15:40;99101.59;;;21.26;100.00
66176;BME280;52977;44.816;20.538;2022-08-21T05:18:07;99098.53;;;21.17;100.00
66176;BME280;52977;44.816;20.538;2022-08-21T05:20:34;99106.84;;;21.17;100.00
66176;BME280;52977;44.816;20.538;2022-08-21T05:23:00;99098.94;;;21.12;100.00
66176;BME280;52977;44.816;20.538;2022-08-21T05:25:26;99082.84;;;20.96;100.00
66176;BME280;52977;44.816;20.538;2022-08-21T05:27:52;99100.16;;;21.11;100.00
66176;BME280;52977;44.816;20.538;2022-08-21T05:30:19;99108.09;;;21.09;100.00
66176;BME280;52977;44.816;20.538;2022-08-21T05:32:46;99110.03;;;21.15;100.00
66176;BME280;52977;44.816;20.538;2022-08-21T05:35:12;99070.97;;;20.92;100.00
66176;BME280;52977;44.816;20.538;2022-08-21T05:37:39;99108.81;;;21.16;100.00
66176;BME280;52977;44.816;20.538;2022-08-21T05:40:05;99105.63;;;21.18;100.00
66176;BME280;52977;44.816;20.538;2022-08-21T05:42:32;99083.19;;;21.02;100.00
66176;BME280;52977;44.816;20.538;2022-08-21T05:44:58;99101.19;;;21.28;100.00
66176;BME280;52977;44.816;20.538;2022-08-21T05:47:24;99103.59;;;21.29;100.00
66176;BME280;52977;44.816;20.538;2022-08-21T05:49:49;99098.06;;;21.22;100.00
66176;BME280;52977;44.816;20.538;2022-08-21T05:52:21;99098.03;;;21.29;100.00
66176;BME280;52977;44.816;20.538;2022-08-21T05:54:47;99098.81;;;21.30;100.00
66176;BME280;52977;44.816;20.538;2022-08-21T05:57:12;99088.94;;;21.25;100.00
66176;BME280;52977;44.816;20.538;2022-08-21T05:59:38;99107.84;;;21.38;100.00
66176;BME280;52977;44.816;20.538;2022-08-21T06:02:04;99073.16;;;21.15;100.00
66176;BME280;52977;44.816;20.538;2022-08-21T06:04:29;99099.16;;;21.36;100.00
66176;BME280;52977;44.816;20.538;2022-08-21T06:06:55;99109.06;;;21.37;100.00
66176;BME280;52977;44.816;20.538;2022-08-21T06:09:21;99082.72;;;21.07;100.00
66176;BME280;52977;44.816;20.538;2022-08-21T06:11:46;99020.88;;;20.57;100.00
66176;BME280;52977;44.816;20.538;2022-08-21T06:14:16;99108.38;;;21.22;100.00
66176;BME280;52977;44.816;20.538;2022-08-21T06:16:42;99111.88;;;21.33;100.00
66176;BME280;52977;44.816;20.538;2022-08-21T06:19:07;99103.94;;;21.35;100.00
66176;BME280;52977;44.816;20.538;2022-08-21T06:21:33;99085.00;;;21.19;100.00
66176;BME280;52977;44.816;20.538;2022-08-21T06:23:59;99111.91;;;21.29;100.00
66176;BME280;52977;44.816;20.538;2022-08-21T06:26:24;99107.50;;;21.32;100.00
66176;BME280;52977;44.816;20.538;2022-08-21T06:28:50;99102.47;;;21.20;100.00
66176;BME280;52977;44.816;20.538;2022-08-21T06:31:18;99111.50;;;21.27;100.00
66176;BME280;52977;44.816;20.538;2022-08-21T06:33:45;99104.78;;;21.28;100.00
66176;BME280;52977;44.816;20.538;2022-08-21T06:36:11;99112.28;;;21.28;100.00
66176;BME280;52977;44.816;20.538;2022-08-21T06:38:37;99111.44;;;21.34;100.00
66176;BME280;52977;44.816;20.538;2022-08-21T06:41:04;99110.25;;;21.39;100.00
66176;BME280;52977;44.816;20.538;2022-08-21T06:43:30;99106.25;;;21.40;100.00
66176;BME280;52977;44.816;20.538;2022-08-21T06:45:55;99073.50;;;21.21;100.00
66176;BME280;52977;44.816;20.538;2022-08-21T06:48:21;99094.00;;;21.34;100.00
66176;BME280;52977;44.816;20.538;2022-08-21T06:50:47;99090.00;;;21.39;100.00
66176;BME280;52977;44.816;20.538;2022-08-21T06:53:15;99103.94;;;21.35;100.00
66176;BME280;52977;44.816;20.538;2022-08-21T06:55:41;99088.06;;;21.36;100.00
66176;BME280;52977;44.816;20.538;2022-08-21T06:58:08;99110.06;;;21.57;100.00
66176;BME280;52977;44.816;20.538;2022-08-21T07:00:38;99108.06;;;21.61;100.00
66176;BME280;52977;44.816;20.538;2022-08-21T07:03:04;99072.97;;;21.37;100.00
66176;BME280;52977;44.816;20.538;2022-08-21T07:05:30;99117.22;;;21.58;100.00
66176;BME280;52977;44.816;20.538;2022-08-21T07:07:56;99105.34;;;21.54;100.00
66176;BME280;52977;44.816;20.538;2022-08-21T07:10:23;99116.38;;;21.61;100.00
66176;BME280;52977;44.816;20.538;2022-08-21T07:12:50;99101.84;;;21.46;100.00
66176;BME280;52977;44.816;20.538;2022-08-21T07:15:15;99105.47;;;21.36;100.00
66176;BME280;52977;44.816;20.538;2022-08-21T07:17:41;99108.56;;;21.49;100.00
66176;BME280;52977;44.816;20.538;2022-08-21T07:20:07;99115.75;;;21.43;100.00
66176;BME280;52977;44.816;20.538;2022-08-21T07:22:33;99087.72;;;21.26;100.00
66176;BME280;52977;44.816;20.538;2022-08-21T07:25:00;99103.94;;;21.35;100.00
66176;BME280;52977;44.816;20.538;2022-08-21T07:27:26;99068.78;;;21.17;100.00
66176;BME280;52977;44.816;20.538;2022-08-21T07:29:52;99116.50;;;21.47;100.00
66176;BME280;52977;44.816;20.538;2022-08-21T07:32:18;99100.34;;;21.34;100.00
66176;BME280;52977;44.816;20.538;2022-08-21T07:34:43;99106.25;;;21.40;100.00
66176;BME280;52977;44.816;20.538;2022-08-21T07:37:09;99106.69;;;21.35;100.00
66176;BME280;52977;44.816;20.538;2022-08-21T07:39:35;99105.47;;;21.40;100.00
66176;BME280;52977;44.816;20.538;2022-08-21T07:42:01;99105.03;;;21.45;100.00
66176;BME280;52977;44.816;20.538;2022-08-21T07:44:29;99109.84;;;21.37;100.00
66176;BME280;52977;44.816;20.538;2022-08-21T07:46:54;99085.16;;;21.01;100.00
66176;BME280;52977;44.816;20.538;2022-08-21T07:49:20;99096.88;;;21.23;100.00
66176;BME280;52977;44.816;20.538;2022-08-21T07:51:45;99088.41;;;21.38;100.00
66176;BME280;52977;44.816;20.538;2022-08-21T07:54:11;99075.56;;;21.13;100.00
66176;BME280;52977;44.816;20.538;2022-08-21T07:56:37;99104.44;;;21.23;100.00
66176;BME280;52977;44.816;20.538;2022-08-21T07:59:02;99065.66;;;21.12;100.00
66176;BME280;52977;44.816;20.538;2022-08-21T08:01:28;99097.63;;;21.27;100.00
66176;BME280;52977;44.816;20.538;2022-08-21T08:03:55;99082.63;;;21.21;100.00
66176;BME280;52977;44.816;20.538;2022-08-21T08:06:21;99074.72;;;21.20;100.00
66176;BME280;52977;44.816;20.538;2022-08-21T08:08:48;99099.13;;;21.39;100.00
66176;BME280;52977;44.816;20.538;2022-08-21T08:11:14;99101.88;;;21.43;100.00
66176;BME280;52977;44.816;20.538;2022-08-21T08:13:45;99101.44;;;21.48;100.00
66176;BME280;52977;44.816;20.538;2022-08-21T08:16:12;99107.31;;;21.57;100.00
66176;BME280;52977;44.816;20.538;2022-08-21T08:18:38;99088.41;;;21.41;100.00
66176;BME280;52977;44.816;20.538;2022-08-21T08:21:04;99094.44;;;21.32;100.00
66176;BME280;52977;44.816;20.538;2022-08-21T08:23:31;99097.56;;;21.34;100.00
66176;BME280;52977;44.816;20.538;2022-08-21T08:25:58;99071.97;;;21.16;100.00
66176;BME280;52977;44.816;20.538;2022-08-21T08:28:24;99105.13;;;21.34;100.00
66176;BME280;52977;44.816;20.538;2022-08-21T08:30:50;99087.38;;;21.24;100.00
66176;BME280;52977;44.816;20.538;2022-08-21T08:33:17;99101.50;;;21.41;100.00
66176;BME280;52977;44.816;20.538;2022-08-21T08:35:46;99095.91;;;21.44;100.00
66176;BME280;52977;44.816;20.538;2022-08-21T08:38:12;99073.50;;;21.21;100.00
66176;BME280;52977;44.816;20.538;2022-08-21T08:40:50;99094.50;;;21.25;100.00
66176;BME280;52977;44.816;20.538;2022-08-21T08:43:18;99093.34;;;21.19;100.00
66176;BME280;52977;44.816;20.538;2022-08-21T08:45:48;99065.38;;;20.95;100.00
66176;BME280;52977;44.816;20.538;2022-08-21T08:48:42;99085.63;;;20.96;100.00
66176;BME280;52977;44.816;20.538;2022-08-21T08:51:10;99088.38;;;20.96;100.00
66176;BME280;52977;44.816;20.538;2022-08-21T08:53:49;99083.16;;;21.05;100.00
66176;BME280;52977;44.816;20.538;2022-08-21T08:56:19;99089.03;;;21.14;100.00
66176;BME280;52977;44.816;20.538;2022-08-21T08:58:47;99075.16;;;21.11;100.00
66176;BME280;52977;44.816;20.538;2022-08-21T09:01:19;99087.78;;;21.23;100.00
66176;BME280;52977;44.816;20.538;2022-08-21T09:03:47;99083.41;;;21.25;100.00
66176;BME280;52977;44.816;20.538;2022-08-21T09:09:15;99072.66;;;21.27;100.00
66176;BME280;52977;44.816;20.538;2022-08-21T09:11:52;99077.78;;;21.32;100.00
66176;BME280;52977;44.816;20.538;2022-08-21T09:14:57;99069.38;;;21.40;100.00
66176;BME280;52977;44.816;20.538;2022-08-21T09:27:02;99051.69;;;21.23;100.00
66176;BME280;52977;44.816;20.538;2022-08-21T09:28:58;99056.84;;;21.24;100.00
66176;BME280;52977;44.816;20.538;2022-08-21T09:31:44;99074.94;;;21.36;100.00
66176;BME280;52977;44.816;20.538;2022-08-21T09:34:11;99043.47;;;21.08;100.00
66176;BME280;52977;44.816;20.538;2022-08-21T09:36:43;99057.31;;;21.15;100.00
66176;BME280;52977;44.816;20.538;2022-08-21T09:39:11;99068.63;;;21.36;100.00
66176;BME280;52977;44.816;20.538;2022-08-21T09:41:39;99059.03;;;21.44;100.00
66176;BME280;52977;44.816;20.538;2022-08-21T09:44:06;99052.28;;;21.45;100.00
66176;BME280;52977;44.816;20.538;2022-08-21T09:46:33;99058.94;;;21.51;100.00
66176;BME280;52977;44.816;20.538;2022-08-21T09:49:02;99030.13;;;21.38;100.00
66176;BME280;52977;44.816;20.538;2022-08-21T09:51:36;99037.50;;;21.59;100.00
66176;BME280;52977;44.816;20.538;2022-08-21T09:59:40;99058.78;;;21.69;100.00
66176;BME280;52977;44.816;20.538;2022-08-21T10:02:35;99043.91;;;21.52;100.00
66176;BME280;52977;44.816;20.538;2022-08-21T10:07:31;99050.03;;;21.74;100.00
66176;BME280;52977;44.816;20.538;2022-08-21T10:10:08;99011.41;;;21.49;100.00
66176;BME280;52977;44.816;20.538;2022-08-21T10:23:33;99054.97;;;21.90;100.00
66176;BME280;52977;44.816;20.538;2022-08-21T10:29:03;99063.75;;;21.89;100.00
66176;BME280;52977;44.816;20.538;2022-08-21T10:37:25;99046.44;;;21.74;100.00
66176;BME280;52977;44.816;20.538;2022-08-21T10:40:15;99046.75;;;21.83;100.00
66176;BME280;52977;44.816;20.538;2022-08-21T10:42:57;99050.09;;;22.01;100.00
66176;BME280;52977;44.816;20.538;2022-08-21T10:48:25;99060.94;;;21.92;100.00
66176;BME280;52977;44.816;20.538;2022-08-21T10:56:22;99071.75;;;21.83;100.00
66176;BME280;52977;44.816;20.538;2022-08-21T11:04:30;99076.72;;;21.64;100.00
66176;BME280;52977;44.816;20.538;2022-08-21T11:07:05;99077.13;;;21.63;100.00
66176;BME280;52977;44.816;20.538;2022-08-21T11:09:31;99056.66;;;21.42;100.00
66176;BME280;52977;44.816;20.538;2022-08-21T11:17:27;99043.47;;;21.08;100.00
66176;BME280;52977;44.816;20.538;2022-08-21T11:20:05;99063.78;;;21.02;100.00
66176;BME280;52977;44.816;20.538;2022-08-21T11:22:40;99030.28;;;20.74;100.00
66176;BME280;52977;44.816;20.538;2022-08-21T11:25:13;99059.53;;;20.86;100.00
66176;BME280;52977;44.816;20.538;2022-08-21T11:27:47;99052.88;;;20.76;100.00
66176;BME280;52977;44.816;20.538;2022-08-21T11:30:15;99030.78;;;20.58;100.00
66176;BME280;52977;44.816;20.538;2022-08-21T11:35:50;99048.25;;;20.52;100.00
66176;BME280;52977;44.816;20.538;2022-08-21T11:38:42;99066.75;;;20.69;100.00
66176;BME280;52977;44.816;20.538;2022-08-21T11:41:31;99064.06;;;20.55;100.00
66176;BME280;52977;44.816;20.538;2022-08-21T11:44:18;99065.59;;;20.59;100.00
66176;BME280;52977;44.816;20.538;2022-08-21T11:46:50;99062.44;;;20.68;100.00
66176;BME280;52977;44.816;20.538;2022-08-21T11:57:03;99067.94;;;20.72;100.00
66176;BME280;52977;44.816;20.538;2022-08-21T11:59:34;99069.47;;;20.80;100.00
66176;BME280;52977;44.816;20.538;2022-08-21T12:02:02;99046.50;;;20.76;100.00
66176;BME280;52977;44.816;20.538;2022-08-21T12:04:35;99058.00;;;20.78;100.00
66176;BME280;52977;44.816;20.538;2022-08-21T12:07:17;99032.00;;;20.50;100.00
66176;BME280;52977;44.816;20.538;2022-08-21T12:09:53;99051.38;;;20.57;100.00
66176;BME280;52977;44.816;20.538;2022-08-21T12:12:30;99064.44;;;20.57;100.00
66176;BME280;52977;44.816;20.538;2022-08-21T12:23:05;99038.19;;;20.79;100.00
66176;BME280;52977;44.816;20.538;2022-08-21T12:25:58;99048.81;;;20.85;100.00
66176;BME280;52977;44.816;20.538;2022-08-21T12:28:26;99042.13;;;20.82;100.00
66176;BME280;52977;44.816;20.538;2022-08-21T12:30:53;99037.44;;;20.64;100.00
66176;BME280;52977;44.816;20.538;2022-08-21T12:36:23;98817.50;;;19.13;100.00
66176;BME280;52977;44.816;20.538;2022-08-21T12:39:04;99019.75;;;20.47;100.00
66176;BME280;52977;44.816;20.538;2022-08-21T12:41:43;99033.94;;;20.57;100.00
66176;BME280;52977;44.816;20.538;2022-08-21T12:44:14;99061.66;;;20.60;100.00
66176;BME280;52977;44.816;20.538;2022-08-21T12:46:48;99065.56;;;20.66;100.00
66176;BME280;52977;44.816;20.538;2022-08-21T12:49:27;99058.78;;;20.75;100.00
66176;BME280;52977;44.816;20.538;2022-08-21T12:52:03;99056.38;;;20.84;100.00
66176;BME280;52977;44.816;20.538;2022-08-21T12:54:37;99065.78;;;20.97;100.00
66176;BME280;52977;44.816;20.538;2022-08-21T12:57:05;99069.34;;;20.98;100.00
66176;BME280;52977;44.816;20.538;2022-08-21T12:59:36;99063.41;;;20.96;100.00
66176;BME280;52977;44.816;20.538;2022-08-21T13:02:05;99072.28;;;20.76;100.00
66176;BME280;52977;44.816;20.538;2022-08-21T13:04:40;99065.50;;;20.81;100.00
66176;BME280;52977;44.816;20.538;2022-08-21T13:07:08;99070.34;;;20.70;100.00
66176;BME280;52977;44.816;20.538;2022-08-21T13:09:48;99080.63;;;20.73;100.00
66176;BME280;52977;44.816;20.538;2022-08-21T13:12:16;99056.06;;;20.68;100.00
66176;BME280;52977;44.816;20.538;2022-08-21T13:14:44;99063.19;;;20.65;100.00
66176;BME280;52977;44.816;20.538;2022-08-21T13:17:14;99076.28;;;20.61;100.00
66176;BME280;52977;44.816;20.538;2022-08-21T13:19:42;99060.47;;;20.58;100.00
66176;BME280;52977;44.816;20.538;2022-08-21T13:22:15;99067.53;;;20.73;100.00
66176;BME280;52977;44.816;20.538;2022-08-21T13:24:40;99067.13;;;20.75;100.00
66176;BME280;52977;44.816;20.538;2022-08-21T13:27:28;99069.84;;;20.82;100.00
66176;BME280;52977;44.816;20.538;2022-08-21T13:30:06;99067.03;;;20.89;100.00
66176;BME280;52977;44.816;20.538;2022-08-21T13:32:34;99057.88;;;20.96;100.00
66176;BME280;52977;44.816;20.538;2022-08-21T13:35:18;99068.50;;;21.05;100.00
66176;BME280;52977;44.816;20.538;2022-08-21T13:37:46;99063.41;;;20.96;100.00
66176;BME280;52977;44.816;20.538;2022-08-21T13:40:16;99055.81;;;21.04;100.00
66176;BME280;52977;44.816;20.538;2022-08-21T13:42:45;99061.38;;;21.04;100.00
66176;BME280;52977;44.816;20.538;2022-08-21T13:45:18;99054.63;;;21.05;100.00
66176;BME280;52977;44.816;20.538;2022-08-21T13:47:45;99045.16;;;20.98;100.00
66176;BME280;52977;44.816;20.538;2022-08-21T13:50:14;99058.47;;;21.18;100.00
66176;BME280;52977;44.816;20.538;2022-08-21T13:52:57;99057.88;;;21.38;100.00
66176;BME280;52977;44.816;20.538;2022-08-21T13:55:24;99053.06;;;21.45;100.00
66176;BME280;52977;44.816;20.538;2022-08-21T13:58:02;99022.44;;;21.11;100.00
66176;BME280;52977;44.816;20.538;2022-08-21T14:00:30;99058.97;;;21.55;100.00
66176;BME280;52977;44.816;20.538;2022-08-21T14:03:04;99030.41;;;21.50;100.00
66176;BME280;52977;44.816;20.538;2022-08-21T14:05:33;99012.59;;;21.48;100.00
66176;BME280;52977;44.816;20.538;2022-08-21T14:08:14;99049.59;;;21.76;100.00
66176;BME280;52977;44.816;20.538;2022-08-21T14:10:42;99060.03;;;21.64;100.00
66176;BME280;52977;44.816;20.538;2022-08-21T14:16:00;99036.91;;;21.37;100.00
66176;BME280;52977;44.816;20.538;2022-08-21T14:18:27;99051.56;;;21.37;100.00